createdAt,value
2023-01-30T00:00:46.879Z,46.9
2023-01-30T00:01:47.842Z,46.7
2023-01-30T00:02:48.799Z,46.6
2023-01-30T00:03:49.743Z,46.6
2023-01-30T00:04:50.798Z,46.6
2023-01-30T00:05:51.794Z,46.7
2023-01-30T00:06:52.792Z,46.6
2023-01-30T00:07:53.761Z,46.5
2023-01-30T00:08:54.818Z,46.5
2023-01-30T00:09:55.679Z,46.6
2023-01-30T00:10:56.867Z,46.8
2023-01-30T00:11:57.943Z,47
2023-01-30T00:12:58.861Z,47
2023-01-30T00:13:59.884Z,47.2
2023-01-30T00:15:00.861Z,47.2
2023-01-30T00:16:01.954Z,47.3
2023-01-30T00:17:02.920Z,47.1
2023-01-30T00:18:03.884Z,47
2023-01-30T00:19:04.887Z,47
2023-01-30T00:20:05.881Z,47.2
2023-01-30T00:21:06.959Z,47.4
2023-01-30T00:22:07.922Z,47.5
2023-01-30T00:23:08.961Z,47.7
2023-01-30T00:24:10.097Z,47.8
2023-01-30T00:25:11.055Z,47.9
2023-01-30T00:26:12.314Z,48
2023-01-30T00:27:13.924Z,48.2
2023-01-30T00:28:14.904Z,48.1
2023-01-30T00:29:15.881Z,48.1
2023-01-30T00:30:17.281Z,48.1
2023-01-30T00:31:18.026Z,48.2
2023-01-30T00:32:18.832Z,47.9
2023-01-30T00:33:19.929Z,47.8
2023-01-30T00:34:20.900Z,47.8
2023-01-30T00:35:21.941Z,47.9
2023-01-30T00:36:22.873Z,47.8
2023-01-30T00:37:23.901Z,47.5
2023-01-30T00:38:24.924Z,47.5
2023-01-30T00:39:25.881Z,47.4
2023-01-30T00:40:26.903Z,47
2023-01-30T00:41:27.856Z,47.2
2023-01-30T00:42:28.906Z,47.7
2023-01-30T00:43:29.922Z,47.1
2023-01-30T00:44:30.948Z,47.3
2023-01-30T00:45:31.981Z,47.2
2023-01-30T00:46:32.922Z,47.2
2023-01-30T00:47:33.959Z,47.1
2023-01-30T00:48:34.940Z,47
2023-01-30T00:49:35.900Z,46.8
2023-01-30T00:50:36.961Z,46.8
2023-01-30T00:51:38.064Z,46.8
2023-01-30T00:52:38.897Z,46.9
2023-01-30T00:53:39.925Z,46.8
2023-01-30T00:54:40.902Z,46.9
2023-01-30T00:55:41.960Z,47.1
2023-01-30T00:56:42.919Z,47.1
2023-01-30T00:57:43.920Z,47.2
2023-01-30T00:58:44.901Z,47.3
2023-01-30T00:59:45.961Z,47.3
2023-01-30T01:00:46.921Z,47.3
2023-01-30T01:01:47.899Z,47.2
2023-01-30T01:02:48.952Z,47.1
2023-01-30T01:03:49.901Z,47
2023-01-30T01:04:50.921Z,47
2023-01-30T01:05:51.893Z,46.8
2023-01-30T01:06:52.922Z,46.9
2023-01-30T01:07:53.920Z,47.1
2023-01-30T01:08:54.940Z,47.2
2023-01-30T01:09:55.808Z,47.4
2023-01-30T01:10:56.862Z,47.5
2023-01-30T01:11:58.041Z,47.4
2023-01-30T01:12:59.004Z,47.5
2023-01-30T01:13:59.974Z,47.5
2023-01-30T01:15:00.985Z,47.4
2023-01-30T01:16:01.989Z,47
2023-01-30T01:17:02.940Z,46.8
2023-01-30T01:18:04.077Z,46.7
2023-01-30T01:19:08.272Z,46.7
2023-01-30T01:20:09.940Z,46.2
2023-01-30T01:21:11.010Z,46.9
2023-01-30T01:22:11.823Z,47.2
2023-01-30T01:23:12.924Z,46.5
2023-01-30T01:24:13.921Z,47
2023-01-30T01:25:15.017Z,46.8
2023-01-30T01:26:15.999Z,46.9
2023-01-30T01:27:16.996Z,47
2023-01-30T01:28:17.961Z,47.1
2023-01-30T01:29:18.768Z,46.9
2023-01-30T01:30:19.841Z,46.9
2023-01-30T01:31:20.936Z,46.8
2023-01-30T01:32:22.026Z,46.7
2023-01-30T01:33:22.940Z,46.6
2023-01-30T01:34:23.963Z,46.4
2023-01-30T01:35:25.000Z,46.3
2023-01-30T01:36:54.854Z,46.4
2023-01-30T01:37:26.922Z,46.2
2023-01-30T01:38:27.762Z,46.1
2023-01-30T01:39:28.763Z,46.1
2023-01-30T01:40:29.860Z,46.5
2023-01-30T01:41:30.869Z,46.4
2023-01-30T01:42:31.801Z,45.7
2023-01-30T01:43:32.822Z,46.2
2023-01-30T01:44:33.804Z,46.1
2023-01-30T01:45:34.854Z,46.4
2023-01-30T01:46:35.803Z,46.6
2023-01-30T01:47:36.804Z,46.5
2023-01-30T01:48:38.001Z,46.3
2023-01-30T01:49:38.971Z,46.2
2023-01-30T01:50:40.001Z,46.2
2023-01-30T01:51:41.001Z,46.3
2023-01-30T01:52:41.980Z,46.4
2023-01-30T01:53:42.902Z,46.4
2023-01-30T01:54:43.999Z,46.4
2023-01-30T01:55:44.909Z,46.3
2023-01-30T01:56:45.940Z,46.4
2023-01-30T01:57:47.001Z,46.4
2023-01-30T01:58:47.936Z,46.4
2023-01-30T01:59:48.952Z,46.4
2023-01-30T02:00:50.027Z,46.5
2023-01-30T02:01:51.049Z,46.7
2023-01-30T02:02:52.049Z,46.7
2023-01-30T02:06:02.059Z,46.7
2023-01-30T02:07:02.936Z,46.7
2023-01-30T02:08:03.881Z,46.4
2023-01-30T02:09:04.779Z,46.2
2023-01-30T02:10:05.876Z,46.1
2023-01-30T02:11:06.923Z,46.2
2023-01-30T02:12:07.957Z,46.3
2023-01-30T02:13:08.828Z,46.3
2023-01-30T02:14:09.872Z,46.3
2023-01-30T02:15:10.837Z,46.2
2023-01-30T02:16:11.878Z,46.4
2023-01-30T02:17:12.875Z,46
2023-01-30T02:18:14.008Z,46.8
2023-01-30T02:19:14.844Z,46.9
2023-01-30T02:20:15.929Z,46.8
2023-01-30T02:21:16.965Z,46.7
2023-01-30T02:22:17.896Z,47
2023-01-30T02:23:18.822Z,47
2023-01-30T02:24:19.816Z,46.9
2023-01-30T02:25:21.187Z,46.9
2023-01-30T02:26:21.916Z,46.9
2023-01-30T02:27:22.822Z,47.1
2023-01-30T02:28:23.835Z,47.3
2023-01-30T02:29:24.839Z,47.1
2023-01-30T02:30:25.931Z,46.9
2023-01-30T02:31:27.122Z,46.8
2023-01-30T02:32:27.906Z,46.6
2023-01-30T02:33:28.906Z,46.6
2023-01-30T02:34:30.036Z,46.9
2023-01-30T02:35:31.025Z,47.3
2023-01-30T02:36:31.997Z,47.6
2023-01-30T02:37:32.997Z,47.5
2023-01-30T02:38:33.890Z,47.7
2023-01-30T02:39:34.926Z,47.6
2023-01-30T02:40:35.997Z,47.6
2023-01-30T02:41:36.958Z,47.7
2023-01-30T02:42:38.063Z,47.6
2023-01-30T02:43:38.817Z,47.7
2023-01-30T02:44:39.996Z,47.6
2023-01-30T02:45:41.004Z,47.5
2023-01-30T02:46:41.923Z,47.5
2023-01-30T02:47:42.916Z,47.5
2023-01-30T02:48:43.978Z,47.2
2023-01-30T02:49:45.036Z,47.3
2023-01-30T02:50:45.983Z,47.4
2023-01-30T02:51:47.038Z,47.6
2023-01-30T02:52:47.841Z,47.6
2023-01-30T02:53:48.817Z,47.6
2023-01-30T02:54:49.977Z,47.6
2023-01-30T02:55:50.837Z,47.6
2023-01-30T02:56:51.857Z,47.8
2023-01-30T02:57:52.858Z,47.7
2023-01-30T02:58:53.924Z,47.6
2023-01-30T02:59:55.008Z,47.6
2023-01-30T03:00:55.998Z,47.5
2023-01-30T03:01:56.928Z,47.5
2023-01-30T03:02:58.097Z,47.5
2023-01-30T03:03:58.980Z,47.6
2023-01-30T03:04:59.982Z,47.5
2023-01-30T03:06:00.979Z,47.4
2023-01-30T03:07:01.989Z,47.2
2023-01-30T03:08:02.877Z,47.3
2023-01-30T03:09:03.896Z,47.3
2023-01-30T03:10:04.896Z,47
2023-01-30T03:11:05.870Z,46.8
2023-01-30T03:12:06.835Z,46.7
2023-01-30T03:13:07.856Z,47.1
2023-01-30T03:14:09.096Z,47.2
2023-01-30T03:15:09.998Z,47.2
2023-01-30T03:16:11.120Z,47.2
2023-01-30T03:17:12.016Z,47.4
2023-01-30T03:18:12.855Z,47.6
2023-01-30T03:19:13.918Z,47.6
2023-01-30T03:20:14.815Z,47.4
2023-01-30T03:21:15.849Z,47.3
2023-01-30T03:22:16.830Z,47.1
2023-01-30T03:23:18.051Z,47.4
2023-01-30T03:24:18.989Z,47.3
2023-01-30T03:25:20.261Z,47.3
2023-01-30T03:26:21.147Z,47.1
2023-01-30T03:27:21.913Z,46.7
2023-01-30T03:28:22.977Z,46.8
2023-01-30T03:29:23.924Z,46.9
2023-01-30T03:30:24.786Z,46.9
2023-01-30T03:31:26.028Z,46.8
2023-01-30T03:32:26.904Z,46.8
2023-01-30T03:33:27.871Z,47
2023-01-30T03:34:28.840Z,47.1
2023-01-30T03:35:29.855Z,47.4
2023-01-30T03:36:30.872Z,47.7
2023-01-30T03:37:31.917Z,47.8
2023-01-30T03:38:32.995Z,47.3
2023-01-30T03:39:33.976Z,47.5
2023-01-30T03:40:34.942Z,47.5
2023-01-30T03:41:35.818Z,47.5
2023-01-30T03:42:36.862Z,47.4
2023-01-30T03:43:37.935Z,47.1
2023-01-30T03:44:38.887Z,46.8
2023-01-30T03:45:39.854Z,46.7
2023-01-30T03:46:40.836Z,46.9
2023-01-30T03:47:41.799Z,47
2023-01-30T03:48:42.863Z,47
2023-01-30T03:49:43.899Z,46.7
2023-01-30T03:50:44.980Z,46.8
2023-01-30T03:51:46.042Z,46.6
2023-01-30T03:52:47.096Z,46.6
2023-01-30T03:53:48.016Z,46.9
2023-01-30T03:54:48.881Z,47
2023-01-30T03:55:49.948Z,46.7
2023-01-30T03:56:50.930Z,47.3
2023-01-30T03:57:51.963Z,47.4
2023-01-30T03:58:52.986Z,47.5
2023-01-30T03:59:54.004Z,47.6
2023-01-30T04:00:56.038Z,47.5
2023-01-30T04:01:55.844Z,47.4
2023-01-30T04:02:56.917Z,47.4
2023-01-30T04:03:57.937Z,47.3
2023-01-30T04:04:58.878Z,47.1
2023-01-30T04:05:59.796Z,46.8
2023-01-30T04:07:00.881Z,46.5
2023-01-30T04:08:01.836Z,46.4
2023-01-30T04:09:02.891Z,46.3
2023-01-30T04:10:03.859Z,46.4
2023-01-30T04:11:04.941Z,46.3
2023-01-30T04:12:05.815Z,46.6
2023-01-30T04:13:06.891Z,46.9
2023-01-30T04:14:07.839Z,46.8
2023-01-30T04:15:08.901Z,47
2023-01-30T04:16:09.877Z,46.9
2023-01-30T04:17:10.804Z,46.9
2023-01-30T04:18:11.777Z,46.7
2023-01-30T04:19:12.996Z,46.5
2023-01-30T04:20:14.019Z,46.5
2023-01-30T04:21:15.039Z,46.2
2023-01-30T04:22:15.956Z,46.3
2023-01-30T04:23:16.951Z,46.4
2023-01-30T04:24:17.976Z,46.4
2023-01-30T04:25:19.287Z,46.1
2023-01-30T04:26:20.033Z,46.2
2023-01-30T04:27:20.865Z,46.5
2023-01-30T04:28:21.977Z,46.7
2023-01-30T04:29:23.138Z,46.6
2023-01-30T04:30:24.042Z,46.5
2023-01-30T04:31:25.021Z,46.4
2023-01-30T04:32:26.056Z,46.5
2023-01-30T04:33:27.019Z,46.5
2023-01-30T04:34:27.957Z,46.5
2023-01-30T04:35:28.889Z,46.6
2023-01-30T04:36:29.947Z,46.8
2023-01-30T04:37:30.995Z,46.9
2023-01-30T04:38:31.956Z,46.8
2023-01-30T04:39:32.896Z,46.9
2023-01-30T04:40:33.886Z,47
2023-01-30T04:41:34.876Z,47.1
2023-01-30T04:42:35.800Z,47
2023-01-30T04:43:37.002Z,47.1
2023-01-30T04:44:38.045Z,47.1
2023-01-30T04:45:38.885Z,47
2023-01-30T04:46:39.919Z,47.2
2023-01-30T04:47:40.971Z,47.2
2023-01-30T04:48:41.855Z,47.1
2023-01-30T04:49:42.862Z,47.1
2023-01-30T04:50:43.961Z,47.3
2023-01-30T04:51:44.901Z,47.5
2023-01-30T04:52:45.827Z,47.3
2023-01-30T04:53:46.900Z,47.2
2023-01-30T04:54:47.916Z,47
2023-01-30T04:55:48.877Z,46.8
2023-01-30T04:56:49.838Z,46.6
2023-01-30T04:57:50.861Z,46.5
2023-01-30T04:58:51.907Z,46.3
2023-01-30T04:59:52.937Z,45.8
2023-01-30T05:00:54.050Z,45.4
2023-01-30T05:01:54.974Z,45.5
2023-01-30T05:02:56.038Z,45.6
2023-01-30T05:03:56.867Z,45.7
2023-01-30T05:04:58.057Z,44.8
2023-01-30T05:05:59.017Z,45.3
2023-01-30T05:07:00.035Z,45.4
2023-01-30T05:08:00.930Z,45.2
2023-01-30T05:09:01.859Z,45.2
2023-01-30T05:10:03.043Z,45
2023-01-30T05:11:03.860Z,45.2
2023-01-30T05:12:04.916Z,45.3
2023-01-30T05:13:05.885Z,45.2
2023-01-30T05:14:07.036Z,45.2
2023-01-30T05:15:08.117Z,45.1
2023-01-30T05:16:09.098Z,45.1
2023-01-30T05:17:10.152Z,45.1
2023-01-30T05:18:10.957Z,45.1
2023-01-30T05:19:12.076Z,45.4
2023-01-30T05:20:13.007Z,45.1
2023-01-30T05:21:14.044Z,45.7
2023-01-30T05:22:15.096Z,46
2023-01-30T05:23:16.017Z,45.8
2023-01-30T05:24:17.156Z,46.5
2023-01-30T05:25:18.369Z,46.8
2023-01-30T05:26:19.096Z,46.8
2023-01-30T05:27:19.980Z,46.8
2023-01-30T05:28:21.077Z,46.9
2023-01-30T05:29:22.045Z,46.9
2023-01-30T05:30:23.131Z,47.2
2023-01-30T05:31:24.204Z,47.3
2023-01-30T05:32:25.143Z,47.5
2023-01-30T05:33:25.999Z,47.8
2023-01-30T05:34:27.056Z,47.8
2023-01-30T05:35:27.937Z,48
2023-01-30T05:36:28.839Z,47.6
2023-01-30T05:37:29.861Z,47.5
2023-01-30T05:38:30.858Z,47.4
2023-01-30T05:39:31.877Z,47.2
2023-01-30T05:40:32.947Z,47.1
2023-01-30T05:41:33.880Z,47.2
2023-01-30T05:42:34.811Z,46.8
2023-01-30T05:43:35.810Z,47.2
2023-01-30T05:44:36.876Z,47.1
2023-01-30T05:45:38.036Z,47.3
2023-01-30T05:46:39.044Z,47.5
2023-01-30T05:47:39.880Z,47.7
2023-01-30T05:48:40.942Z,47.7
2023-01-30T05:49:42.057Z,47.7
2023-01-30T05:50:42.857Z,47.6
2023-01-30T05:51:43.906Z,47.4
2023-01-30T05:52:44.896Z,47.3
2023-01-30T05:53:45.918Z,47.4
2023-01-30T05:54:46.834Z,47.6
2023-01-30T05:55:47.884Z,47.7
2023-01-30T05:56:48.916Z,47.9
2023-01-30T05:57:49.827Z,48.2
2023-01-30T05:58:50.936Z,48.2
2023-01-30T05:59:51.895Z,48.1
2023-01-30T06:00:52.885Z,48.1
2023-01-30T06:01:53.891Z,48.1
2023-01-30T06:02:55.005Z,48.2
2023-01-30T06:03:55.933Z,48.4
2023-01-30T06:04:56.976Z,48.3
2023-01-30T06:05:57.916Z,48.3
2023-01-30T06:06:58.923Z,48.4
2023-01-30T06:07:59.897Z,48.5
2023-01-30T06:09:00.948Z,48.4
2023-01-30T06:10:01.957Z,48.8
2023-01-30T06:11:02.966Z,48.6
2023-01-30T06:12:03.900Z,48.5
2023-01-30T06:13:04.978Z,48.4
2023-01-30T06:14:05.936Z,48.2
2023-01-30T06:15:06.977Z,48.2
2023-01-30T06:16:08.039Z,48.2
2023-01-30T06:17:09.093Z,48.1
2023-01-30T06:18:10.076Z,48.1
2023-01-30T06:19:11.100Z,47.4
2023-01-30T06:20:12.098Z,47.6
2023-01-30T06:21:12.902Z,47.5
2023-01-30T06:22:14.116Z,47.2
2023-01-30T06:23:15.046Z,47.1
2023-01-30T06:24:16.117Z,47.2
2023-01-30T06:25:17.435Z,47.2
2023-01-30T06:26:18.175Z,47
2023-01-30T06:27:19.027Z,47.3
2023-01-30T06:28:20.027Z,47.4
2023-01-30T06:29:21.097Z,47.2
2023-01-30T06:30:22.060Z,47.2
2023-01-30T06:31:23.088Z,47.1
2023-01-30T06:32:24.144Z,47.1
2023-01-30T06:33:25.117Z,47.2
2023-01-30T06:34:26.060Z,47.3
2023-01-30T06:35:27.038Z,47.5
2023-01-30T06:36:28.043Z,47.8
2023-01-30T06:37:28.907Z,48
2023-01-30T06:38:30.097Z,48.1
2023-01-30T06:39:30.917Z,48.1
2023-01-30T06:40:31.937Z,48.1
2023-01-30T06:41:32.868Z,48.3
2023-01-30T06:42:33.897Z,48.5
2023-01-30T06:43:34.917Z,48.6
2023-01-30T06:44:35.917Z,48.6
2023-01-30T06:45:36.960Z,48.6
2023-01-30T06:46:38.057Z,48.6
2023-01-30T06:47:39.043Z,48.6
2023-01-30T06:48:40.040Z,48.7
2023-01-30T06:49:40.898Z,48.8
2023-01-30T06:50:42.039Z,48.9
2023-01-30T06:51:43.058Z,48.8
2023-01-30T06:52:44.126Z,48.7
2023-01-30T06:53:45.069Z,48.8
2023-01-30T06:54:46.161Z,49.1
2023-01-30T06:55:46.897Z,49.5
2023-01-30T06:56:47.931Z,49.9
2023-01-30T06:57:49.119Z,50.4
2023-01-30T06:58:50.057Z,50.1
2023-01-30T06:59:51.144Z,50.3
2023-01-30T07:00:52.019Z,50.3
2023-01-30T07:01:53.004Z,50.8
2023-01-30T07:02:54.145Z,51.3
2023-01-30T07:03:55.150Z,51.5
2023-01-30T07:04:55.938Z,51.3
2023-01-30T07:05:56.938Z,51.1
2023-01-30T07:06:58.062Z,51
2023-01-30T07:07:59.119Z,50.7
2023-01-30T07:09:00.133Z,50.6
2023-01-30T07:10:07.595Z,51
2023-01-30T07:11:01.928Z,51.2
2023-01-30T07:12:02.882Z,51.4
2023-01-30T07:13:04.057Z,51.4
2023-01-30T07:14:06.328Z,51.4
2023-01-30T07:15:06.159Z,51.4
2023-01-30T07:16:06.899Z,51.4
2023-01-30T07:17:07.968Z,51.8
2023-01-30T07:18:08.943Z,52
2023-01-30T07:19:09.963Z,52.1
2023-01-30T07:20:10.943Z,52.3
2023-01-30T07:21:12.019Z,52.4
2023-01-30T07:22:12.939Z,52.1
2023-01-30T07:23:14.081Z,52.3
2023-01-30T07:24:14.992Z,52.6
2023-01-30T07:25:16.397Z,53
2023-01-30T07:26:16.969Z,53.2
2023-01-30T07:27:18.037Z,53.5
2023-01-30T07:28:18.910Z,53.8
2023-01-30T07:29:19.998Z,54
2023-01-30T07:30:20.989Z,54.1
2023-01-30T07:31:21.953Z,54.2
2023-01-30T07:32:23.002Z,54.4
2023-01-30T07:33:24.122Z,54.6
2023-01-30T07:34:25.098Z,55
2023-01-30T07:35:26.165Z,55.4
2023-01-30T07:36:26.994Z,55.5
2023-01-30T07:37:27.979Z,55.6
2023-01-30T07:38:28.901Z,56
2023-01-30T07:39:30.139Z,56.1
2023-01-30T07:40:30.997Z,56.4
2023-01-30T07:41:32.099Z,56.6
2023-01-30T07:42:33.079Z,56.6
2023-01-30T07:43:34.140Z,56.9
2023-01-30T07:44:35.138Z,57.1
2023-01-30T07:45:36.158Z,57.3
2023-01-30T07:46:37.222Z,57.3
2023-01-30T07:47:38.063Z,57.3
2023-01-30T07:48:39.129Z,57.4
2023-01-30T07:49:40.097Z,57.6
2023-01-30T07:50:41.076Z,57.7
2023-01-30T07:51:42.026Z,57.7
2023-01-30T07:52:42.961Z,57.5
2023-01-30T07:53:43.984Z,57.2
2023-01-30T07:54:45.077Z,57.1
2023-01-30T07:55:45.982Z,57.2
2023-01-30T07:56:46.961Z,57.1
2023-01-30T07:57:47.974Z,57
2023-01-30T07:58:49.042Z,57
2023-01-30T07:59:49.905Z,57.2
2023-01-30T08:00:51.031Z,57.3
2023-01-30T08:01:51.961Z,57.3
2023-01-30T08:02:52.926Z,57.4
2023-01-30T08:03:54.123Z,57.1
2023-01-30T08:04:55.190Z,56.9
2023-01-30T08:05:56.098Z,56.8
2023-01-30T08:06:57.018Z,56.8
2023-01-30T08:07:58.079Z,56.8
2023-01-30T08:08:58.960Z,56.7
2023-01-30T08:09:59.985Z,56.4
2023-01-30T08:11:01.006Z,56.2
2023-01-30T08:12:01.979Z,55.9
2023-01-30T08:13:03.086Z,55.8
2023-01-30T08:14:04.127Z,55.7
2023-01-30T08:15:05.108Z,55.4
2023-01-30T08:16:06.199Z,55.3
2023-01-30T08:17:07.146Z,55.3
2023-01-30T08:18:08.235Z,55.3
2023-01-30T08:19:09.149Z,55.5
2023-01-30T08:20:10.199Z,55.5
2023-01-30T08:21:10.963Z,55.4
2023-01-30T08:22:12.078Z,55.4
2023-01-30T08:23:13.047Z,55.3
2023-01-30T08:24:14.207Z,55.2
2023-01-30T08:25:15.140Z,55.1
2023-01-30T08:26:16.145Z,55.2
2023-01-30T08:27:16.997Z,55.1
2023-01-30T08:28:18.098Z,54.9
2023-01-30T08:29:18.977Z,54.7
2023-01-30T08:30:20.400Z,55.1
2023-01-30T08:31:20.991Z,55
2023-01-30T08:32:22.045Z,54.8
2023-01-30T08:33:23.194Z,54.6
2023-01-30T08:34:24.163Z,54.2
2023-01-30T08:35:25.253Z,54
2023-01-30T08:36:26.093Z,53.9
2023-01-30T08:37:27.178Z,53.7
2023-01-30T08:38:28.175Z,52.7
2023-01-30T08:39:28.998Z,53.3
2023-01-30T08:40:30.098Z,53.5
2023-01-30T08:41:31.077Z,53.6
2023-01-30T08:42:32.198Z,53.7
2023-01-30T08:43:33.119Z,53.6
2023-01-30T08:44:34.059Z,53.6
2023-01-30T08:45:35.156Z,53.7
2023-01-30T08:46:36.187Z,53.7
2023-01-30T08:47:37.132Z,53.7
2023-01-30T08:48:49.048Z,53.9
2023-01-30T08:49:39.076Z,54
2023-01-30T08:50:40.113Z,54.2
2023-01-30T08:51:41.079Z,54
2023-01-30T08:52:42.174Z,54.1
2023-01-30T08:53:43.167Z,54.2
2023-01-30T08:54:44.061Z,54.4
2023-01-30T08:55:45.157Z,54.2
2023-01-30T08:56:46.157Z,54.4
2023-01-30T08:57:47.122Z,54.6
2023-01-30T08:58:48.054Z,55
2023-01-30T08:59:49.059Z,55.6
2023-01-30T09:00:50.122Z,56.4
2023-01-30T09:01:51.140Z,56.5
2023-01-30T09:02:52.253Z,56.9
2023-01-30T09:03:53.251Z,57.4
2023-01-30T09:04:54.200Z,57.9
2023-01-30T09:05:55.239Z,58.2
2023-01-30T09:06:56.177Z,58.6
2023-01-30T09:07:57.219Z,58.6
2023-01-30T09:08:58.248Z,58.1
2023-01-30T09:09:59.223Z,58.3
2023-01-30T09:11:00.217Z,58.6
2023-01-30T09:12:01.147Z,58.6
2023-01-30T09:13:02.283Z,58.9
2023-01-30T09:14:03.001Z,59.3
2023-01-30T09:15:04.207Z,59.5
2023-01-30T09:16:05.445Z,59.6
2023-01-30T09:17:07.218Z,59.5
2023-01-30T09:18:08.077Z,59.4
2023-01-30T09:19:09.138Z,59.7
2023-01-30T09:20:10.293Z,59.8
2023-01-30T09:21:11.253Z,59.8
2023-01-30T09:22:12.317Z,59.6
2023-01-30T09:23:13.238Z,59.3
2023-01-30T09:24:14.185Z,59.5
2023-01-30T09:25:15.300Z,59.2
2023-01-30T09:26:16.317Z,59.5
2023-01-30T09:27:17.117Z,59.5
2023-01-30T09:28:18.277Z,59.3
2023-01-30T09:29:19.297Z,59.5
2023-01-30T09:30:20.616Z,59.6
2023-01-30T09:31:21.240Z,59.9
2023-01-30T09:32:22.147Z,59.8
2023-01-30T09:33:23.230Z,59.7
2023-01-30T09:34:24.170Z,59.5
2023-01-30T09:35:25.067Z,59.7
2023-01-30T09:36:26.060Z,60.1
2023-01-30T09:37:26.998Z,60.4
2023-01-30T09:38:28.331Z,60.6
2023-01-30T09:39:29.050Z,60.8
2023-01-30T09:40:30.034Z,60.8
2023-01-30T09:41:31.079Z,60.9
2023-01-30T09:42:32.166Z,61
2023-01-30T09:43:33.192Z,61.4
2023-01-30T09:44:34.093Z,61.8
2023-01-30T09:45:35.160Z,61.9
2023-01-30T09:46:36.082Z,61.9
2023-01-30T09:47:37.082Z,61.8
2023-01-30T09:48:39.631Z,61.6
2023-01-30T09:49:39.088Z,61.5
2023-01-30T09:50:40.122Z,61.5
2023-01-30T09:51:42.087Z,61.6
2023-01-30T09:52:43.016Z,61.8
2023-01-30T09:53:44.195Z,61.9
2023-01-30T09:54:45.248Z,62
2023-01-30T09:55:46.196Z,61.7
2023-01-30T09:56:47.097Z,62
2023-01-30T09:57:48.178Z,61.8
2023-01-30T09:58:49.179Z,61.7
2023-01-30T09:59:50.186Z,61.7
2023-01-30T10:00:51.176Z,61.8
2023-01-30T10:01:52.158Z,61.8
2023-01-30T10:02:53.137Z,61.8
2023-01-30T10:03:54.160Z,61.8
2023-01-30T10:05:01.166Z,61.7
2023-01-30T10:05:56.251Z,61.5
2023-01-30T10:06:57.183Z,61.7
2023-01-30T10:07:58.174Z,61.9
2023-01-30T10:08:59.154Z,62.1
2023-01-30T10:10:00.223Z,62.3
2023-01-30T10:11:10.243Z,62.6
2023-01-30T10:12:02.149Z,62.9
2023-01-30T10:13:03.150Z,63.3
2023-01-30T10:14:04.080Z,63.5
2023-01-30T10:15:05.398Z,63.5
2023-01-30T10:16:07.271Z,63.6
2023-01-30T10:17:08.197Z,63.6
2023-01-30T10:18:09.182Z,63.6
2023-01-30T10:19:10.096Z,63.6
2023-01-30T10:20:11.221Z,63.6
2023-01-30T10:21:12.043Z,63.7
2023-01-30T10:22:13.028Z,63.7
2023-01-30T10:23:14.056Z,63.6
2023-01-30T10:24:14.997Z,63.5
2023-01-30T10:25:15.997Z,63.4
2023-01-30T10:26:17.027Z,63.4
2023-01-30T10:27:18.079Z,63.6
2023-01-30T10:28:19.056Z,63.3
2023-01-30T10:29:20.150Z,63.7
2023-01-30T10:30:21.516Z,63.5
2023-01-30T10:31:22.216Z,63.5
2023-01-30T10:32:23.010Z,63.5
2023-01-30T10:33:24.096Z,63.2
2023-01-30T10:34:25.178Z,63.6
2023-01-30T10:35:27.281Z,63.8
2023-01-30T10:36:27.186Z,63.9
2023-01-30T10:37:28.315Z,64.1
2023-01-30T10:38:29.060Z,64.2
2023-01-30T10:39:29.950Z,64
2023-01-30T10:40:31.219Z,63.9
2023-01-30T10:41:32.198Z,64
2023-01-30T10:42:33.269Z,63.9
2023-01-30T10:43:34.198Z,63.9
2023-01-30T10:44:35.035Z,63.9
2023-01-30T10:45:36.700Z,64
2023-01-30T10:46:37.139Z,63.9
2023-01-30T10:47:46.941Z,64
2023-01-30T10:48:43.048Z,64
2023-01-30T10:49:40.180Z,64.2
2023-01-30T10:50:41.228Z,64.3
2023-01-30T10:51:42.279Z,64.5
2023-01-30T10:52:43.264Z,64.5
2023-01-30T10:53:44.402Z,64.3
2023-01-30T10:54:45.258Z,64.1
2023-01-30T10:55:46.137Z,63.9
2023-01-30T10:56:47.097Z,63.7
2023-01-30T10:57:48.112Z,63.7
2023-01-30T10:58:49.060Z,63.9
2023-01-30T10:59:50.124Z,64.1
2023-01-30T11:00:51.113Z,64.2
2023-01-30T11:01:52.194Z,64.1
2023-01-30T11:02:53.154Z,64
2023-01-30T11:03:54.083Z,64.1
2023-01-30T11:04:55.219Z,64.1
2023-01-30T11:05:56.204Z,63.4
2023-01-30T11:06:57.281Z,63.9
2023-01-30T11:07:58.241Z,64
2023-01-30T11:08:59.102Z,64.1
2023-01-30T11:10:00.192Z,64.2
2023-01-30T11:11:01.254Z,64.3
2023-01-30T11:12:02.214Z,64.5
2023-01-30T11:13:03.236Z,64.6
2023-01-30T11:14:04.035Z,64.5
2023-01-30T11:15:05.018Z,64.6
2023-01-30T11:16:06.155Z,64.5
2023-01-30T11:17:07.116Z,64.5
2023-01-30T11:18:50.860Z,64.4
2023-01-30T11:19:24.425Z,64.4
2023-01-30T11:20:13.198Z,64.2
2023-01-30T11:21:12.238Z,64.3
2023-01-30T11:22:13.141Z,64.4
2023-01-30T11:23:14.097Z,64.5
2023-01-30T11:24:15.159Z,64.7
2023-01-30T11:25:16.645Z,64.7
2023-01-30T11:26:17.244Z,64.5
2023-01-30T11:27:18.313Z,64.6
2023-01-30T11:28:19.260Z,64.4
2023-01-30T11:29:20.057Z,64.3
2023-01-30T11:30:21.485Z,64.4
2023-01-30T11:31:35.207Z,64.1
2023-01-30T11:32:23.297Z,64
2023-01-30T11:33:24.216Z,64
2023-01-30T11:34:25.040Z,64.1
2023-01-30T11:35:26.228Z,64
2023-01-30T11:36:27.216Z,64
2023-01-30T11:37:28.430Z,63.9
2023-01-30T11:38:30.240Z,63.6
2023-01-30T11:39:31.284Z,63.5
2023-01-30T11:40:32.217Z,63.7
2023-01-30T11:41:33.236Z,64
2023-01-30T11:42:34.236Z,64.2
2023-01-30T11:43:35.214Z,64.3
2023-01-30T11:44:36.298Z,64.2
2023-01-30T11:45:37.270Z,63.9
2023-01-30T11:46:38.256Z,63.6
2023-01-30T11:47:41.408Z,63.4
2023-01-30T11:49:01.539Z,63.2
2023-01-30T11:49:46.097Z,63.1
2023-01-30T11:50:43.436Z,63.1
2023-01-30T11:51:43.277Z,63.1
2023-01-30T11:52:44.236Z,63.2
2023-01-30T11:53:45.188Z,63.4
2023-01-30T11:54:46.216Z,63.4
2023-01-30T11:56:01.828Z,63.3
2023-01-30T11:56:48.136Z,63.3
2023-01-30T11:57:49.289Z,63.1
2023-01-30T11:58:50.225Z,63.2
2023-01-30T11:59:51.216Z,63.3
2023-01-30T12:00:52.198Z,63.4
2023-01-30T12:01:53.344Z,63.1
2023-01-30T12:02:54.174Z,62.9
2023-01-30T12:03:55.154Z,62.9
2023-01-30T12:04:56.296Z,63
2023-01-30T12:05:57.256Z,63
2023-01-30T12:06:58.388Z,62.9
2023-01-30T12:07:59.270Z,62.7
2023-01-30T12:09:00.229Z,62.5
2023-01-30T12:10:01.281Z,62.4
2023-01-30T12:11:02.311Z,62.6
2023-01-30T12:12:03.230Z,62.6
2023-01-30T12:13:04.216Z,62.9
2023-01-30T12:14:05.253Z,62.9
2023-01-30T12:15:06.256Z,63.1
2023-01-30T12:16:07.263Z,63
2023-01-30T12:17:08.196Z,62.9
2023-01-30T12:18:09.240Z,63.1
2023-01-30T12:19:10.334Z,63.3
2023-01-30T12:20:11.096Z,63.2
2023-01-30T12:21:12.056Z,62.9
2023-01-30T12:22:13.098Z,63
2023-01-30T12:23:14.145Z,63
2023-01-30T12:24:15.527Z,63
2023-01-30T12:25:16.276Z,62.7
2023-01-30T12:26:17.286Z,63
2023-01-30T12:27:18.277Z,63.5
2023-01-30T12:28:19.156Z,63.7
2023-01-30T12:29:20.296Z,63.4
2023-01-30T12:30:21.424Z,63.4
2023-01-30T12:31:22.257Z,63.4
2023-01-30T12:32:23.175Z,63.4
2023-01-30T12:33:24.137Z,63.1
2023-01-30T12:34:25.860Z,63.3
2023-01-30T12:35:26.197Z,63.4
2023-01-30T12:36:27.156Z,63.3
2023-01-30T12:37:28.615Z,63.3
2023-01-30T12:38:30.186Z,62.9
2023-01-30T12:39:31.304Z,62.8
2023-01-30T12:40:32.281Z,62.9
2023-01-30T12:41:33.236Z,63.2
2023-01-30T12:42:34.408Z,63.3
2023-01-30T12:43:35.178Z,63.1
2023-01-30T12:44:36.247Z,63.4
2023-01-30T12:45:37.271Z,63.5
2023-01-30T12:46:38.261Z,63.4
2023-01-30T12:47:39.296Z,63.1
2023-01-30T12:48:43.842Z,63.1
2023-01-30T12:49:41.239Z,63.2
2023-01-30T12:50:42.135Z,63.3
2023-01-30T12:51:43.092Z,63.3
2023-01-30T12:52:44.037Z,62.8
2023-01-30T12:53:45.423Z,62.9
2023-01-30T12:54:46.101Z,63.2
2023-01-30T12:55:47.109Z,63.2
2023-01-30T12:56:48.337Z,63.2
2023-01-30T12:57:49.157Z,63.1
2023-01-30T12:58:50.141Z,63
2023-01-30T12:59:51.186Z,63.1
2023-01-30T13:00:52.241Z,63.1
2023-01-30T13:01:53.360Z,63
2023-01-30T13:02:54.192Z,63.1
2023-01-30T13:03:55.256Z,62.6
2023-01-30T13:05:03.872Z,63.1
2023-01-30T13:05:57.219Z,62.9
2023-01-30T13:06:58.357Z,63
2023-01-30T13:07:59.286Z,62.7
2023-01-30T13:09:00.207Z,62.6
2023-01-30T13:10:01.176Z,62.3
2023-01-30T13:11:02.235Z,62.1
2023-01-30T13:12:03.291Z,62.2
2023-01-30T13:13:04.262Z,62.2
2023-01-30T13:14:05.198Z,62
2023-01-30T13:15:06.216Z,62
2023-01-30T13:16:07.317Z,61.8
2023-01-30T13:17:08.217Z,61.9
2023-01-30T13:18:09.239Z,62.1
2023-01-30T13:19:10.196Z,61.7
2023-01-30T13:20:11.296Z,61.5
2023-01-30T13:21:12.316Z,61.8
2023-01-30T13:22:13.316Z,62.2
2023-01-30T13:23:14.305Z,62
2023-01-30T13:24:15.170Z,62.3
2023-01-30T13:25:16.255Z,62.7
2023-01-30T13:26:17.178Z,62.6
2023-01-30T13:27:18.281Z,62.8
2023-01-30T13:28:19.161Z,62.6
2023-01-30T13:29:20.188Z,62.8
2023-01-30T13:30:21.349Z,63
2023-01-30T13:31:22.317Z,63.1
2023-01-30T13:32:23.418Z,62.9
2023-01-30T13:33:24.307Z,63.3
2023-01-30T13:34:25.242Z,63.6
2023-01-30T13:35:26.130Z,63.4
2023-01-30T13:36:27.218Z,63.5
2023-01-30T13:37:28.694Z,63.4
2023-01-30T13:38:30.241Z,63.3
2023-01-30T13:39:31.110Z,63